BAW265 KSAN-EGLL
Flight info
| Callsign | BAW265 |
|---|---|
| Flight time | N/A |
| Altitude | 35000 |
| Route | ZZOOO4 MTBAL DCT EED DCT KD45Q DCT KD60U DCT KD75A DCT KP87G/N0483F370 DCT KP12M DCT VETRO DCT OBSAT DCT YAY/N0474F390 DCT RIKAL/M083F390 DCT 53N050W 55N040W 56N030W 56N020W DCT RESNO DCT NETKI/N0485F390 DCT BOFUM Q37 MALUD Q38 NUGRA |
| Aircraft | B772/H-SDE2E3FGHIJ5LORVWXY/LB1D1 |
Departure
| Time | 2026-05-08 03:31 |
|---|---|
| Airport | San Diego International Airport (KSAN) |
Arrival
| Time | N/A |
|---|---|
| Airport | London Heathrow Airport (EGLL) |
| Time | Latitude | Longitude | Altitude | Speed | Heading |
|---|---|---|---|---|---|
| 2026-05-08 03:21 | 32.73292 | -117.20475 | 34 ft | 0 kts | 99° |
| 2026-05-08 03:23 | 32.73293 | -117.20482 | 34 ft | 2 kts | 103° |
| 2026-05-08 03:24 | 32.73298 | -117.20499 | 34 ft | 2 kts | 121° |
| 2026-05-08 03:24 | 32.73307 | -117.20513 | 34 ft | 2 kts | 125° |
| 2026-05-08 03:24 | 32.73315 | -117.20528 | 33 ft | 2 kts | 123° |
| 2026-05-08 03:24 | 32.73323 | -117.20543 | 33 ft | 2 kts | 122° |
| 2026-05-08 03:25 | 32.73329 | -117.20559 | 34 ft | 2 kts | 94° |
| 2026-05-08 03:25 | 32.73328 | -117.20576 | 34 ft | 2 kts | 70° |
| 2026-05-08 03:25 | 32.73321 | -117.20592 | 33 ft | 2 kts | 47° |
| 2026-05-08 03:25 | 32.73314 | -117.20599 | 34 ft | 0 kts | 40° |
| 2026-05-08 03:28 | 32.73316 | -117.20597 | 33 ft | 3 kts | 40° |
| 2026-05-08 03:28 | 32.73371 | -117.20565 | 33 ft | 14 kts | 18° |
| 2026-05-08 03:28 | 32.73497 | -117.20512 | 34 ft | 21 kts | 42° |
| 2026-05-08 03:28 | 32.73576 | -117.20364 | 34 ft | 20 kts | 90° |
| 2026-05-08 03:29 | 32.73542 | -117.20174 | 34 ft | 27 kts | 106° |
| 2026-05-08 03:29 | 32.73381 | -117.19498 | 34 ft | 35 kts | 106° |
| 2026-05-08 03:29 | 32.73307 | -117.19177 | 34 ft | 44 kts | 107° |
| 2026-05-08 03:29 | 32.73210 | -117.18798 | 34 ft | 51 kts | 106° |
| 2026-05-08 03:30 | 32.73007 | -117.17950 | 34 ft | 50 kts | 106° |
| 2026-05-08 03:30 | 32.73045 | -117.17692 | 34 ft | 17 kts | 288° |
| 2026-05-08 03:31 | 32.73234 | -117.18471 | 34 ft | 113 kts | 286° |
| 2026-05-08 03:31 | 32.73854 | -117.20951 | 684 ft | 175 kts | 286° |
| 2026-05-08 03:32 | 32.74209 | -117.22407 | 1332 ft | 190 kts | 285° |
| 2026-05-08 03:32 | 32.74577 | -117.23947 | 2108 ft | 202 kts | 286° |
| 2026-05-08 03:32 | 32.74970 | -117.25592 | 2853 ft | 218 kts | 287° |
| 2026-05-08 03:32 | 32.75393 | -117.27351 | 3714 ft | 231 kts | 288° |
| 2026-05-08 03:33 | 32.75842 | -117.29182 | 4776 ft | 236 kts | 292° |
| 2026-05-08 03:33 | 32.76727 | -117.30833 | 5571 ft | 248 kts | 319° |
| 2026-05-08 03:33 | 32.78256 | -117.31809 | 6483 ft | 258 kts | 347° |
| 2026-05-08 03:33 | 32.80058 | -117.31724 | 7446 ft | 267 kts | 18° |
| 2026-05-08 03:34 | 32.81591 | -117.30526 | 8400 ft | 275 kts | 46° |
| 2026-05-08 03:34 | 32.82766 | -117.28778 | 9476 ft | 274 kts | 51° |
| 2026-05-08 03:34 | 32.83905 | -117.26986 | 10418 ft | 277 kts | 52° |
| 2026-05-08 03:34 | 32.85100 | -117.25101 | 11042 ft | 293 kts | 52° |
| 2026-05-08 03:35 | 32.86355 | -117.23118 | 11651 ft | 309 kts | 52° |
| 2026-05-08 03:35 | 32.87672 | -117.21036 | 12264 ft | 324 kts | 52° |
| 2026-05-08 03:35 | 32.89063 | -117.18835 | 12858 ft | 339 kts | 53° |
| 2026-05-08 03:35 | 32.90492 | -117.16574 | 13438 ft | 354 kts | 53° |
| 2026-05-08 03:36 | 32.91991 | -117.14198 | 14062 ft | 367 kts | 53° |
| 2026-05-08 03:36 | 32.93565 | -117.11701 | 14774 ft | 378 kts | 53° |
| 2026-05-08 03:36 | 32.95898 | -117.07998 | 16041 ft | 386 kts | 52° |
| 2026-05-08 03:36 | 32.99116 | -117.02885 | 17626 ft | 399 kts | 52° |
| 2026-05-08 03:37 | 33.02452 | -116.97577 | 19372 ft | 405 kts | 52° |
| 2026-05-08 03:37 | 33.05847 | -116.92167 | 20974 ft | 413 kts | 52° |
| 2026-05-08 03:37 | 33.09290 | -116.86672 | 22526 ft | 421 kts | 52° |
| 2026-05-08 03:37 | 33.12740 | -116.81158 | 23958 ft | 430 kts | 52° |
| 2026-05-08 03:38 | 33.16297 | -116.75465 | 25375 ft | 437 kts | 52° |
| 2026-05-08 03:38 | 33.19909 | -116.69674 | 26632 ft | 445 kts | 52° |
| 2026-05-08 03:38 | 33.23635 | -116.63692 | 27747 ft | 453 kts | 52° |
| 2026-05-08 03:38 | 33.27371 | -116.57683 | 28816 ft | 459 kts | 52° |
| 2026-05-08 03:39 | 33.31124 | -116.51636 | 29932 ft | 462 kts | 52° |
| 2026-05-08 03:39 | 33.34893 | -116.45553 | 31263 ft | 458 kts | 52° |
| 2026-05-08 03:39 | 33.38627 | -116.39516 | 32524 ft | 454 kts | 51° |
| 2026-05-08 03:39 | 33.42232 | -116.33678 | 33515 ft | 453 kts | 52° |
| 2026-05-08 03:40 | 33.45828 | -116.27846 | 34474 ft | 451 kts | 52° |
| 2026-05-08 03:40 | 33.49448 | -116.21967 | 34987 ft | 458 kts | 52° |
| 2026-05-08 03:40 | 33.53260 | -116.15767 | 34952 ft | 475 kts | 52° |
| 2026-05-08 03:40 | 33.57156 | -116.09418 | 34925 ft | 488 kts | 52° |
| 2026-05-08 03:41 | 33.61196 | -116.03068 | 34927 ft | 491 kts | 47° |
| 2026-05-08 03:41 | 33.69997 | -115.91435 | 35007 ft | 492 kts | 46° |
| 2026-05-08 03:42 | 33.78817 | -115.79753 | 35091 ft | 492 kts | 46° |
| 2026-05-08 03:42 | 33.87855 | -115.67968 | 35043 ft | 492 kts | 45° |
| 2026-05-08 03:43 | 33.97036 | -115.56084 | 34967 ft | 492 kts | 45° |
| 2026-05-08 03:43 | 34.06178 | -115.44210 | 34920 ft | 490 kts | 45° |
| 2026-05-08 03:43 | 34.10604 | -115.38444 | 34917 ft | 470 kts | 45° |
| 2026-05-08 03:44 | 34.14653 | -115.33159 | 34908 ft | 441 kts | 45° |
| 2026-05-08 03:44 | 34.22864 | -115.22424 | 34894 ft | 444 kts | 45° |
| 2026-05-08 03:45 | 34.31086 | -115.11644 | 34899 ft | 443 kts | 45° |
| 2026-05-08 03:45 | 34.39371 | -115.00747 | 34906 ft | 443 kts | 46° |
| 2026-05-08 03:46 | 34.47649 | -114.89823 | 34929 ft | 442 kts | 46° |
| 2026-05-08 03:46 | 34.55921 | -114.78874 | 34933 ft | 443 kts | 46° |
| 2026-05-08 03:47 | 34.64141 | -114.67960 | 34922 ft | 442 kts | 46° |
| 2026-05-08 03:47 | 34.72349 | -114.57026 | 34896 ft | 443 kts | 46° |
| 2026-05-08 03:48 | 34.80554 | -114.46061 | 34885 ft | 441 kts | 46° |
| 2026-05-08 03:48 | 34.88749 | -114.35076 | 34950 ft | 441 kts | 46° |
| 2026-05-08 03:49 | 34.96545 | -114.24593 | 34996 ft | 442 kts | 46° |
| 2026-05-08 03:49 | 35.04729 | -114.13551 | 35064 ft | 441 kts | 46° |
| 2026-05-08 03:50 | 35.12699 | -114.02766 | 35106 ft | 441 kts | 46° |
| 2026-05-08 03:50 | 35.20751 | -113.91833 | 35089 ft | 441 kts | 46° |
| 2026-05-08 03:51 | 35.28870 | -113.80776 | 35113 ft | 440 kts | 46° |
| 2026-05-08 03:51 | 35.36922 | -113.69773 | 35144 ft | 440 kts | 46° |
| 2026-05-08 03:52 | 35.44929 | -113.58797 | 35169 ft | 440 kts | 46° |
| 2026-05-08 03:52 | 35.53004 | -113.47692 | 35166 ft | 439 kts | 46° |
| 2026-05-08 03:53 | 35.61037 | -113.36608 | 35179 ft | 439 kts | 46° |
| 2026-05-08 03:53 | 35.68898 | -113.25726 | 35213 ft | 439 kts | 46° |
| 2026-05-08 03:54 | 35.76888 | -113.14629 | 35241 ft | 440 kts | 46° |